Time;durP1;ratioP1;P1;durP2;ratioP2;P2;SDS_P1;SDS_P2;PMS_P1;PMS_P2;Temp;Humidity;BMP_temperature;BMP_pressure;BME280_temperature;BME280_humidity;BME280_pressure;Samples;Min_cycle;Max_cycle;Signal;HPM_P1;HPM_P2
2023/03/30 00:01:13;;;;;;;7.07;5.25;;;;;;;8.83;100.00;100094.34;5005564;28;20054;-79
2023/03/30 00:03:41;;;;;;;9.00;5.03;;;;;;;8.82;100.00;100100.44;5012129;28;20053;-83
2023/03/30 00:06:09;;;;;;;10.00;5.40;;;;;;;8.83;100.00;100094.34;5021180;28;20060;-78
2023/03/30 00:08:37;;;;;;;6.18;5.40;;;;;;;8.81;100.00;100096.09;5021412;28;20050;-85
2023/03/30 00:11:12;;;;;;;6.30;5.50;;;;;;;8.78;100.00;100086.56;4997357;28;20044;-79
2023/03/30 00:13:39;;;;;;;7.38;5.47;;;;;;;8.76;100.00;100083.09;5001770;28;20073;-78
2023/03/30 00:16:10;;;;;;;9.23;4.97;;;;;;;8.76;100.00;100076.13;5019858;28;20078;-90
2023/03/30 00:18:38;;;;;;;8.40;5.80;;;;;;;8.77;100.00;100071.78;5021076;28;20073;-83
2023/03/30 00:21:08;;;;;;;10.93;5.90;;;;;;;8.75;100.00;100060.50;4997618;28;20385;-80
2023/03/30 00:23:35;;;;;;;8.00;4.93;;;;;;;8.69;100.00;100061.41;5004981;28;20038;-82
2023/03/30 00:26:02;;;;;;;9.35;5.80;;;;;;;8.59;100.00;100065.88;4998417;28;20042;-81
2023/03/30 00:28:30;;;;;;;9.45;6.00;;;;;;;8.48;100.00;100051.22;5005844;28;20196;-79
2023/03/30 00:30:57;;;;;;;6.50;5.28;;;;;;;8.38;100.00;100053.88;5006748;28;20124;-80
2023/03/30 00:33:24;;;;;;;5.10;4.45;;;;;;;8.26;100.00;100047.03;5004349;28;20404;-79
2023/03/30 00:35:58;;;;;;;9.60;5.68;;;;;;;8.18;100.00;100048.00;5005551;28;20045;-82
2023/03/30 00:38:26;;;;;;;10.52;5.28;;;;;;;8.11;100.00;100031.53;4998999;28;20539;-79
2023/03/30 00:40:56;;;;;;;7.30;4.85;;;;;;;8.05;100.00;100024.63;5035343;28;20066;-90
2023/03/30 00:43:24;;;;;;;8.80;6.30;;;;;;;8.05;100.00;100031.59;5031151;28;20037;-82
2023/03/30 00:45:51;;;;;;;10.15;5.63;;;;;;;8.07;100.00;100022.88;5006062;28;20045;-79
2023/03/30 00:48:29;;;;;;;6.75;5.38;;;;;;;8.07;100.00;100022.88;5006602;28;20038;-81
2023/03/30 00:51:03;;;;;;;7.38;5.22;;;;;;;8.07;100.00;100014.16;5022658;28;20062;-79
2023/03/30 00:53:33;;;;;;;;;;;;;;;8.11;100.00;100014.16;5000563;28;20057;-79
2023/03/30 00:56:03;;;;;;;6.90;4.30;;;;;;;8.14;100.00;100004.56;5010451;28;20024;-79
2023/03/30 00:58:31;;;;;;;7.30;4.45;;;;;;;8.17;100.00;100002.78;5015179;28;20056;-80
2023/03/30 01:01:01;;;;;;;10.27;5.65;;;;;;;8.17;100.00;99996.72;5006983;28;20042;-80
2023/03/30 01:03:34;;;;;;;7.20;3.88;;;;;;;8.21;100.00;99999.28;4991030;28;20141;-78
2023/03/30 01:06:06;;;;;;;6.82;4.00;;;;;;;8.23;100.00;99997.50;5007496;28;20096;-77
2023/03/30 01:08:34;;;;;;;5.07;3.67;;;;;;;8.23;100.00;100004.50;5027700;28;20042;-90
2023/03/30 01:11:02;;;;;;;6.85;4.05;;;;;;;8.21;100.00;100004.50;5017038;28;20056;-81
2023/03/30 01:13:33;;;;;;;7.05;5.15;;;;;;;8.27;100.00;100003.56;5006708;28;20053;-78
2023/03/30 01:16:30;;;;;;;7.53;4.35;;;;;;;8.43;100.00;100006.88;5009516;28;20500;-81
2023/03/30 01:22:49;;;;;;;5.78;3.90;;;;;;;8.64;100.00;99994.50;5022169;22;20061;-78
2023/03/30 01:25:49;;;;;;;7.78;5.03;;;;;;;8.69;100.00;99983.13;5010983;28;20050;-83
2023/03/30 01:28:52;;;;;;;10.55;4.18;;;;;;;8.67;100.00;99977.09;5004302;28;20038;-85
2023/03/30 01:31:51;;;;;;;4.15;3.70;;;;;;;8.61;100.00;99972.78;4976115;28;20096;-90
2023/03/30 01:34:31;;;;;;;8.27;4.00;;;;;;;8.61;100.00;99956.28;5012488;28;20554;-83
2023/03/30 01:37:36;;;;;;;6.60;3.78;;;;;;;8.53;100.00;99961.59;5025379;28;20037;-79
2023/03/30 01:40:13;;;;;;;5.88;4.05;;;;;;;8.49;100.00;99957.28;5010385;28;20050;-82
2023/03/30 01:42:55;;;;;;;5.32;4.03;;;;;;;8.51;100.00;99950.28;5005716;28;20064;-80
2023/03/30 01:45:37;;;;;;;8.68;3.75;;;;;;;8.54;100.00;99945.06;5008561;28;20113;-80
2023/03/30 01:48:44;;;;;;;6.03;4.25;;;;;;;8.52;100.00;99936.38;5012653;28;20042;-82
2023/03/30 01:51:25;;;;;;;5.75;4.03;;;;;;;8.52;100.00;99928.56;5011176;28;20046;-84
2023/03/30 01:54:00;;;;;;;4.07;3.33;;;;;;;8.47;100.00;99919.06;5010101;28;20058;-78
2023/03/30 01:56:46;;;;;;;5.82;3.65;;;;;;;8.45;100.00;99921.66;5008192;28;20038;-77
2023/03/30 01:59:53;;;;;;;6.97;3.42;;;;;;;8.44;100.00;99915.56;5012794;28;20050;-79
2023/03/30 02:02:22;;;;;;;6.47;4.05;;;;;;;8.41;100.00;99915.63;5010511;28;20112;-82
2023/03/30 02:04:53;;;;;;;4.35;3.90;;;;;;;8.37;100.00;99915.66;5018828;28;20595;-80
2023/03/30 02:07:25;;;;;;;5.97;3.90;;;;;;;8.38;100.00;99913.06;4998307;28;20073;-80
2023/03/30 02:09:56;;;;;;;6.20;3.55;;;;;;;8.36;100.00;99901.75;5012950;28;20057;-76
2023/03/30 02:12:25;;;;;;;5.18;3.60;;;;;;;8.35;100.00;99900.03;5023489;28;20056;-79
2023/03/30 02:14:53;;;;;;;6.63;4.15;;;;;;;8.35;100.00;99894.81;5016572;28;20045;-79
2023/03/30 02:17:23;;;;;;;4.03;3.47;;;;;;;8.41;100.00;99905.19;5021438;28;20064;-78
2023/03/30 02:19:51;;;;;;;6.75;3.78;;;;;;;8.43;100.00;99899.94;5020611;28;20049;-78
2023/03/30 02:22:20;;;;;;;5.15;3.65;;;;;;;8.45;100.00;99892.97;5022854;28;20046;-79
2023/03/30 02:24:50;;;;;;;8.18;3.83;;;;;;;8.42;100.00;99878.22;4995848;28;20050;-79
2023/03/30 02:27:17;;;;;;;6.43;3.85;;;;;;;8.41;100.00;99889.53;4992782;28;20049;-80
2023/03/30 02:29:45;;;;;;;4.70;3.85;;;;;;;8.40;100.00;99886.94;5016792;28;20106;-78
2023/03/30 02:32:25;;;;;;;6.25;3.58;;;;;;;8.35;100.00;99881.78;5011256;28;20045;-81
2023/03/30 02:35:01;;;;;;;5.47;3.90;;;;;;;8.34;100.00;99868.75;5015520;28;20034;-78
2023/03/30 02:38:05;;;;;;;7.15;3.58;;;;;;;8.37;100.00;99843.53;5014719;28;20136;-84
2023/03/30 02:41:18;;;;;;;2.75;2.55;;;;;;;8.48;100.00;99813.84;5004939;28;20037;-77
2023/03/30 02:44:04;;;;;;;5.38;3.67;;;;;;;8.65;100.00;99835.34;5010310;28;20034;-77
2023/03/30 02:47:02;;;;;;;6.40;3.80;;;;;;;8.82;100.00;99840.31;5011238;28;20046;-77
2023/03/30 02:49:57;;;;;;;4.43;3.25;;;;;;;8.97;100.00;99838.34;5012265;28;20050;-78
2023/03/30 02:52:54;;;;;;;3.45;2.80;;;;;;;9.08;100.00;99845.13;5013199;28;20297;-85
2023/03/30 02:55:38;;;;;;;5.35;3.05;;;;;;;9.16;100.00;99844.16;5025998;28;20083;-79
2023/03/30 02:58:29;;;;;;;3.13;2.40;;;;;;;9.21;100.00;99840.56;5028886;28;20116;-81
2023/03/30 03:01:44;;;;;;;5.57;3.13;;;;;;;9.25;100.00;99846.63;5009683;28;20061;-80
2023/03/30 03:04:14;;;;;;;3.10;2.80;;;;;;;9.20;100.00;99851.06;4988044;28;20052;-77
2023/03/30 03:06:42;;;;;;;4.28;3.08;;;;;;;9.16;100.00;99837.16;5021312;28;20038;-83
2023/03/30 03:09:09;;;;;;;5.97;3.45;;;;;;;9.17;100.00;99833.69;5007144;28;20045;-84
2023/03/30 03:11:35;;;;;;;2.95;2.65;;;;;;;9.22;100.00;99839.69;4996458;28;20042;-80
2023/03/30 03:14:02;;;;;;;5.10;3.67;;;;;;;9.24;100.00;99831.81;5011564;28;20485;-78
2023/03/30 03:16:28;;;;;;;3.75;2.33;;;;;;;9.29;100.00;99829.16;4991115;28;20042;-82
2023/03/30 03:18:55;;;;;;;4.85;3.92;;;;;;;9.32;100.00;99826.47;5013931;28;20041;-79
2023/03/30 03:21:22;;;;;;;6.32;3.33;;;;;;;9.35;100.00;99824.69;5011749;28;20050;-77
2023/03/30 03:23:48;;;;;;;2.50;2.03;;;;;;;9.38;100.00;99824.63;5012038;28;20112;-78
2023/03/30 03:26:15;;;;;;;2.88;2.50;;;;;;;9.42;100.00;99823.66;5010952;28;20037;-80
2023/03/30 03:28:43;;;;;;;7.47;2.83;;;;;;;9.49;100.00;99823.56;4991707;28;20046;-83
2023/03/30 03:31:11;;;;;;;4.72;2.47;;;;;;;9.52;100.00;99813.09;4995900;28;20072;-79
2023/03/30 03:33:37;;;;;;;3.00;2.63;;;;;;;9.55;100.00;99802.56;5006538;28;20037;-80
2023/03/30 03:36:04;;;;;;;5.28;2.72;;;;;;;9.58;100.00;99805.09;5006375;28;20053;-79
2023/03/30 03:38:31;;;;;;;3.13;2.40;;;;;;;9.61;100.00;99799.84;5014294;28;20054;-78
2023/03/30 03:40:59;;;;;;;3.28;2.70;;;;;;;9.64;100.00;99806.75;5015962;28;20049;-80
2023/03/30 03:43:28;;;;;;;3.05;2.30;;;;;;;9.67;100.00;99806.69;5001584;28;20057;-79
2023/03/30 03:45:55;;;;;;;4.65;2.33;;;;;;;9.70;100.00;99810.13;5006472;28;20037;-78
2023/03/30 03:48:24;;;;;;;3.88;2.47;;;;;;;9.75;100.00;99799.56;4994761;28;20049;-77
2023/03/30 03:50:58;;;;;;;3.72;2.42;;;;;;;9.80;100.00;99799.47;5003374;28;20039;-80
2023/03/30 03:53:26;;;;;;;;;;;;;;;9.81;100.00;99793.38;5003575;28;20133;-78
2023/03/30 03:55:53;;;;;;;4.43;2.42;;;;;;;9.79;100.00;99784.69;4994783;28;20407;-80
2023/03/30 03:58:21;;;;;;;3.05;2.65;;;;;;;9.77;100.00;99793.41;5011396;28;20041;-79
2023/03/30 04:00:47;;;;;;;4.18;3.00;;;;;;;9.78;100.00;99802.13;5009118;28;20516;-78
2023/03/30 04:03:14;;;;;;;3.80;2.53;;;;;;;9.82;100.00;99805.56;5012950;28;20045;-83
2023/03/30 04:05:41;;;;;;;3.22;1.77;;;;;;;9.81;100.00;99799.44;5014984;28;20091;-80
2023/03/30 04:08:09;;;;;;;3.75;2.67;;;;;;;9.80;100.00;99797.72;5010246;28;20072;-79
2023/03/30 04:10:41;;;;;;;2.67;2.45;;;;;;;9.81;100.00;99790.75;5004920;28;20050;-79
2023/03/30 04:13:07;;;;;;;3.80;2.33;;;;;;;9.82;100.00;99788.09;4992052;28;20149;-78
2023/03/30 04:15:34;;;;;;;2.55;2.35;;;;;;;9.81;100.00;99780.31;4996222;28;20056;-78
2023/03/30 04:18:01;;;;;;;3.17;2.85;;;;;;;9.81;100.00;99767.22;5011399;28;20108;-78
2023/03/30 04:20:29;;;;;;;6.45;3.30;;;;;;;9.83;100.00;99766.31;5010753;28;20079;-77
2023/03/30 04:23:00;;;;;;;4.55;2.95;;;;;;;9.81;100.00;99752.41;5006032;28;20039;-80
2023/03/30 04:25:27;;;;;;;5.22;2.40;;;;;;;9.80;100.00;99747.22;5009783;28;20042;-77
2023/03/30 04:27:55;;;;;;;2.60;2.13;;;;;;;9.75;100.00;99742.94;5019480;28;20061;-78
2023/03/30 04:30:22;;;;;;;3.60;2.35;;;;;;;9.68;100.00;99732.63;5005805;28;20046;-79
2023/03/30 04:33:01;;;;;;;2.97;2.55;;;;;;;9.59;100.00;99734.56;5023243;28;20042;-79
2023/03/30 04:35:31;;;;;;;2.90;2.45;;;;;;;9.51;100.00;99732.97;5002876;28;20046;-78
2023/03/30 04:37:59;;;;;;;3.78;2.47;;;;;;;9.51;100.00;99743.41;5010851;28;20057;-79
2023/03/30 04:40:26;;;;;;;4.10;2.67;;;;;;;9.55;100.00;99740.72;4994602;28;20077;-79
2023/03/30 04:42:52;;;;;;;3.33;2.55;;;;;;;9.62;100.00;99736.25;5009179;28;20073;-78
2023/03/30 04:45:19;;;;;;;4.85;3.30;;;;;;;9.74;100.00;99748.19;4992388;28;20048;-78
2023/03/30 04:47:46;;;;;;;3.97;2.63;;;;;;;9.83;100.00;99755.84;4996168;28;20506;-76
2023/03/30 04:50:13;;;;;;;3.40;2.22;;;;;;;9.91;100.00;99751.31;5007765;28;20100;-81
2023/03/30 04:52:40;;;;;;;2.95;2.70;;;;;;;9.99;100.00;99752.94;5010640;28;20492;-80
2023/03/30 04:55:07;;;;;;;8.20;4.45;;;;;;;10.02;100.00;99747.63;5016501;28;20045;-79
2023/03/30 04:57:34;;;;;;;4.53;3.42;;;;;;;10.04;100.00;99745.84;5000251;28;20096;-79
2023/03/30 05:00:00;;;;;;;4.78;2.55;;;;;;;10.10;100.00;99735.22;5008974;28;20064;-80
2023/03/30 05:02:27;;;;;;;7.53;3.58;;;;;;;10.10;100.00;99736.13;5003680;28;20049;-79
2023/03/30 05:04:53;;;;;;;4.00;2.75;;;;;;;10.07;100.00;99733.53;5011827;28;20042;-82
2023/03/30 05:07:20;;;;;;;5.57;2.92;;;;;;;10.03;100.00;99741.50;5013723;28;20403;-88
2023/03/30 05:09:46;;;;;;;5.03;2.97;;;;;;;10.00;100.00;99745.03;5008005;28;20069;-85
2023/03/30 05:12:15;;;;;;;5.18;2.95;;;;;;;9.97;100.00;99739.00;5018574;28;20053;-80
2023/03/30 05:14:42;;;;;;;4.10;2.47;;;;;;;9.93;100.00;99746.94;5010342;28;20073;-80
2023/03/30 05:17:09;;;;;;;2.00;1.90;;;;;;;9.86;100.00;99740.09;5010344;28;20410;-82
2023/03/30 05:19:35;;;;;;;7.70;2.90;;;;;;;9.79;100.00;99740.25;5014894;28;20046;-78
2023/03/30 05:22:02;;;;;;;5.60;2.97;;;;;;;9.76;100.00;99743.78;5000584;28;20045;-77
2023/03/30 05:24:29;;;;;;;3.90;2.30;;;;;;;9.80;100.00;99745.44;5019724;28;20049;-77
2023/03/30 05:26:55;;;;;;;4.97;2.17;;;;;;;9.90;100.00;99733.91;5001907;28;20048;-78
2023/03/30 05:29:22;;;;;;;2.50;2.10;;;;;;;10.07;100.00;99736.16;5006771;28;20041;-84
2023/03/30 05:31:48;;;;;;;4.07;2.10;;;;;;;10.25;100.00;99728.81;5002993;28;20039;-78
2023/03/30 05:34:15;;;;;;;2.33;2.00;;;;;;;10.33;99.15;99726.88;4993147;28;20053;-81
2023/03/30 05:36:41;;;;;;;4.95;1.98;;;;;;;10.45;98.04;99722.31;5007674;28;20050;-83
2023/03/30 05:39:08;;;;;;;5.88;2.08;;;;;;;10.56;97.47;99717.69;4999592;28;20042;-79
2023/03/30 05:41:35;;;;;;;5.95;2.05;;;;;;;10.70;96.45;99720.81;5004340;28;20162;-83
2023/03/30 05:44:03;;;;;;;2.90;2.13;;;;;;;10.85;94.75;99718.72;5005207;28;20044;-81
2023/03/30 05:46:30;;;;;;;5.25;1.58;;;;;;;10.96;93.68;99729.75;5010020;28;20180;-79
2023/03/30 05:48:57;;;;;;;1.98;1.83;;;;;;;11.02;92.99;99726.16;5004565;28;20049;-78
2023/03/30 05:51:24;;;;;;;4.65;1.58;;;;;;;11.00;92.84;99725.31;5010570;28;20046;-79
2023/03/30 05:53:51;;;;;;;4.25;2.05;;;;;;;10.95;93.17;99725.44;4991611;28;20134;-79
2023/03/30 05:56:17;;;;;;;7.78;2.25;;;;;;;10.96;92.79;99736.78;5000271;28;20403;-85
2023/03/30 05:58:44;;;;;;;2.20;1.83;;;;;;;11.00;92.78;99738.41;4991932;28;20046;-78
2023/03/30 06:01:12;;;;;;;2.95;2.08;;;;;;;11.07;92.48;99742.59;5007151;28;20488;-80
2023/03/30 06:03:38;;;;;;;4.55;2.88;;;;;;;11.17;91.77;99743.22;5007709;28;20038;-78
2023/03/30 06:06:06;;;;;;;3.42;1.95;;;;;;;11.30;90.80;99731.50;5007849;28;20425;-79
2023/03/30 06:08:33;;;;;;;2.42;1.75;;;;;;;11.48;90.05;99734.53;5008744;28;20062;-78
2023/03/30 06:11:00;;;;;;;5.10;1.88;;;;;;;11.62;89.11;99726.31;5004595;28;20045;-77
2023/03/30 06:13:27;;;;;;;3.92;1.58;;;;;;;11.73;88.23;99732.06;5006742;28;20133;-79
2023/03/30 06:15:53;;;;;;;2.47;1.65;;;;;;;11.83;87.82;99725.66;4995863;28;20038;-83
2023/03/30 06:18:20;;;;;;;4.50;1.90;;;;;;;11.86;87.49;99730.84;5011013;28;20046;-80
2023/03/30 06:20:47;;;;;;;3.05;1.40;;;;;;;11.92;87.31;99725.41;5004818;28;20119;-78
2023/03/30 06:23:14;;;;;;;3.97;1.42;;;;;;;12.02;86.71;99714.66;4994221;28;20125;-82
2023/03/30 06:25:51;;;;;;;3.88;1.92;;;;;;;12.13;86.17;99716.97;4983057;28;20052;-79
2023/03/30 06:28:21;;;;;;;2.33;1.30;;;;;;;12.38;85.82;99712.69;4992974;28;20074;-79
2023/03/30 06:30:49;;;;;;;8.00;1.52;;;;;;;12.74;83.71;99696.63;4990517;28;20124;-79
2023/03/30 06:33:18;;;;;;;5.15;2.05;;;;;;;13.02;83.81;99693.09;4995787;28;20046;-79
2023/03/30 06:35:49;;;;;;;6.10;2.35;;;;;;;13.16;83.20;99689.13;4990526;28;20157;-79
2023/03/30 06:38:17;;;;;;;7.07;2.13;;;;;;;13.22;82.64;99688.91;5001889;28;20466;-83
2023/03/30 06:40:46;;;;;;;2.42;1.60;;;;;;;13.20;82.08;99680.22;4993902;28;20710;-78
2023/03/30 06:43:18;;;;;;;2.63;1.23;;;;;;;13.13;82.76;99679.56;4978485;28;20042;-78
2023/03/30 06:45:53;;;;;;;1.67;1.20;;;;;;;13.07;82.05;99680.66;4995398;28;20121;-77
2023/03/30 06:48:22;;;;;;;3.92;1.67;;;;;;;13.07;83.00;99685.03;4999728;28;20050;-78
2023/03/30 06:50:51;;;;;;;9.07;1.77;;;;;;;13.07;82.77;99671.91;4997114;28;20121;-78
2023/03/30 06:53:18;;;;;;;3.95;2.08;;;;;;;13.02;83.11;99676.47;4976491;28;20397;-81
2023/03/30 06:55:45;;;;;;;25.20;3.22;;;;;;;12.94;83.06;99681.97;4982510;28;20048;-78
2023/03/30 06:58:11;;;;;;;8.05;1.48;;;;;;;12.88;83.24;99688.31;4981646;28;20056;-77
2023/03/30 07:00:38;;;;;;;3.05;1.88;;;;;;;12.87;82.96;99691.84;4999865;28;20037;-76
2023/03/30 07:03:05;;;;;;;5.88;1.90;;;;;;;12.88;82.97;99692.69;5015624;28;20568;-79
2023/03/30 07:05:32;;;;;;;11.48;2.10;;;;;;;12.87;83.23;99696.25;4991798;28;20421;-78
2023/03/30 07:07:58;;;;;;;18.42;2.53;;;;;;;12.90;82.86;99709.25;4997069;28;20048;-77
2023/03/30 07:10:25;;;;;;;3.33;2.42;;;;;;;12.94;82.82;99717.91;4995986;28;20046;-85
2023/03/30 07:12:51;;;;;;;3.60;1.27;;;;;;;12.98;82.52;99714.25;4995671;28;20045;-79
2023/03/30 07:15:18;;;;;;;3.47;1.80;;;;;;;13.02;82.57;99722.00;4982881;28;20050;-77
2023/03/30 07:17:45;;;;;;;5.40;2.00;;;;;;;13.07;82.58;99724.44;4991688;28;20100;-77
2023/03/30 07:20:13;;;;;;;4.85;1.90;;;;;;;13.10;81.54;99707.72;5017523;22;20092;-80
2023/03/30 07:22:40;;;;;;;31.02;4.13;;;;;;;13.16;81.68;99708.38;5030565;28;20053;-79
2023/03/30 07:25:08;;;;;;;7.53;2.33;;;;;;;13.21;81.06;99719.56;5024451;28;20053;-85
2023/03/30 07:27:37;;;;;;;9.00;2.35;;;;;;;13.24;80.52;99702.84;5032757;28;20049;-79
2023/03/30 07:30:06;;;;;;;5.22;2.10;;;;;;;13.28;80.35;99711.47;5008029;28;20057;-77
2023/03/30 07:32:33;;;;;;;3.63;1.98;;;;;;;13.35;80.49;99715.59;5009627;28;20478;-80
2023/03/30 07:35:00;;;;;;;6.25;2.10;;;;;;;13.42;80.46;99721.56;5019112;28;20044;-78
2023/03/30 07:37:27;;;;;;;4.07;1.80;;;;;;;13.51;79.84;99724.69;5016844;28;20550;-80
2023/03/30 07:39:56;;;;;;;2.53;1.95;;;;;;;13.66;79.11;99728.56;5021702;28;20050;-78
2023/03/30 07:42:23;;;;;;;4.57;1.42;;;;;;;13.75;78.18;99714.19;5012253;28;20073;-78
2023/03/30 07:44:50;;;;;;;6.55;1.77;;;;;;;13.82;78.14;99715.69;5010490;28;20038;-78
2023/03/30 07:47:20;;;;;;;6.15;2.22;;;;;;;13.89;77.56;99713.69;5008626;28;20050;-80
2023/03/30 07:49:47;;;;;;;11.20;2.80;;;;;;;13.94;77.64;99719.63;5018572;28;20132;-78
2023/03/30 07:52:14;;;;;;;4.20;1.30;;;;;;;14.00;76.57;99715.88;5016536;28;20038;-80
2023/03/30 07:54:42;;;;;;;4.10;1.48;;;;;;;14.05;75.85;99717.44;5019255;28;20034;-84
2023/03/30 07:57:12;;;;;;;3.95;1.02;;;;;;;14.10;75.63;99717.25;5020902;28;20049;-78
2023/03/30 07:59:40;;;;;;;5.47;1.45;;;;;;;14.19;75.21;99713.41;5020557;28;20576;-75
2023/03/30 08:02:11;;;;;;;3.25;1.42;;;;;;;14.29;74.45;99712.13;4994897;28;20053;-79
2023/03/30 08:04:37;;;;;;;4.78;1.40;;;;;;;14.34;74.41;99711.94;5009996;28;20052;-80
2023/03/30 08:07:04;;;;;;;1.85;1.00;;;;;;;14.41;74.05;99713.44;5028217;28;20034;-79
2023/03/30 08:09:31;;;;;;;4.88;1.75;;;;;;;14.49;73.82;99715.75;5004347;28;20077;-78
2023/03/30 08:11:57;;;;;;;1.58;0.80;;;;;;;14.58;73.42;99720.66;5010683;28;20046;-81
2023/03/30 08:14:26;;;;;;;4.32;1.08;;;;;;;14.66;73.03;99726.47;5016927;28;20046;-82
2023/03/30 08:16:53;;;;;;;5.03;1.38;;;;;;;14.69;72.87;99712.31;5001203;28;20045;-79
2023/03/30 08:19:22;;;;;;;4.65;1.42;;;;;;;14.70;73.09;99714.06;5012708;28;20042;-78
2023/03/30 08:21:48;;;;;;;3.63;1.77;;;;;;;14.70;73.28;99728.06;5019005;28;20068;-80
2023/03/30 08:24:15;;;;;;;3.55;0.90;;;;;;;14.66;73.38;99721.22;5032204;28;20476;-80
2023/03/30 08:26:42;;;;;;;2.88;1.10;;;;;;;14.64;73.32;99724.81;5040327;28;20042;-80
2023/03/30 08:29:10;;;;;;;4.35;1.67;;;;;;;14.60;73.56;99716.19;5034110;28;20056;-77
2023/03/30 08:31:36;;;;;;;4.28;0.95;;;;;;;14.63;73.78;99718.69;5032690;28;20047;-78
2023/03/30 08:34:03;;;;;;;7.85;1.35;;;;;;;14.71;73.68;99711.34;5015640;28;20089;-82
2023/03/30 08:36:31;;;;;;;5.40;1.10;;;;;;;14.86;73.24;99720.41;5031939;28;20053;-78
2023/03/30 08:39:08;;;;;;;3.65;1.40;;;;;;;14.91;73.12;99707.03;5027160;28;20049;-79
2023/03/30 08:42:07;;;;;;;3.00;1.33;;;;;;;14.92;73.56;99707.91;5025523;28;20058;-78
2023/03/30 08:44:40;;;;;;;1.38;1.27;;;;;;;14.97;73.66;99704.13;5035154;28;20037;-78
2023/03/30 08:47:14;;;;;;;5.07;1.52;;;;;;;15.58;72.19;99717.34;5032170;28;20488;-81
2023/03/30 08:49:50;;;;;;;21.80;2.58;;;;;;;15.74;71.56;99704.34;5030733;28;20049;-79
2023/03/30 08:52:23;;;;;;;5.35;1.38;;;;;;;15.52;72.11;99711.41;5029944;28;20050;-85
2023/03/30 08:54:52;;;;;;;2.60;1.08;;;;;;;15.32;73.93;99714.09;5030187;28;20044;-79
2023/03/30 08:57:54;;;;;;;1.45;1.20;;;;;;;15.43;73.76;99703.06;5023657;28;20049;-79
2023/03/30 09:00:33;;;;;;;3.03;1.25;;;;;;;15.65;72.92;99695.06;5026253;28;20064;-76
2023/03/30 09:03:30;;;;;;;4.90;2.33;;;;;;;16.19;71.73;99692.56;5030389;28;20043;-81
2023/03/30 09:06:11;;;;;;;4.63;1.33;;;;;;;17.53;65.67;99677.94;5031225;28;20053;-77
2023/03/30 09:08:39;;;;;;;6.05;2.20;;;;;;;17.93;64.63;99674.09;5029567;28;20408;-88
2023/03/30 09:11:12;;;;;;;3.33;1.92;;;;;;;17.78;63.55;99678.38;5026638;28;20068;-90
2023/03/30 09:13:45;;;;;;;2.72;1.23;;;;;;;18.16;61.99;99672.78;5026567;28;20071;-92
2023/03/30 09:16:25;;;;;;;5.75;1.45;;;;;;;19.09;58.60;99672.78;5028718;28;20049;-79
2023/03/30 09:18:58;;;;;;;6.13;2.50;;;;;;;19.11;57.33;99687.66;5030634;28;20086;-83
2023/03/30 09:21:30;;;;;;;7.45;1.90;;;;;;;18.52;58.37;99684.91;5008289;28;20103;-81
2023/03/30 09:23:59;;;;;;;4.55;1.70;;;;;;;18.67;57.24;99676.06;5012911;28;20092;-80
2023/03/30 09:26:44;;;;;;;5.63;1.67;;;;;;;19.13;56.39;99677.81;4996637;28;20045;-79
2023/03/30 09:29:30;;;;;;;5.05;2.42;;;;;;;19.20;55.67;99685.41;5002933;28;20048;-81
2023/03/30 09:32:36;;;;;;;12.73;2.03;;;;;;;18.23;56.48;99687.41;5025931;28;20042;-78
2023/03/30 09:35:18;;;;;;;3.60;1.55;;;;;;;17.26;58.36;99679.38;5024872;28;20582;-83
2023/03/30 09:37:45;;;;;;;6.25;1.40;;;;;;;16.78;60.32;99697.66;5010590;28;20046;-79
2023/03/30 09:41:05;;;;;;;6.93;1.85;;;;;;;16.41;62.46;99700.31;5040799;28;20064;-77
2023/03/30 09:43:43;;;;;;;6.57;1.73;;;;;;;15.86;66.98;99711.72;5028527;28;20045;-79
2023/03/30 09:46:10;;;;;;;5.25;2.33;;;;;;;15.49;69.15;99716.00;5017196;28;20045;-79
2023/03/30 09:48:43;;;;;;;10.30;2.92;;;;;;;15.27;70.84;99724.84;5032215;28;20048;-80
2023/03/30 09:51:26;;;;;;;4.85;1.92;;;;;;;14.96;75.26;99735.84;5035208;28;20106;-80
2023/03/30 09:54:05;;;;;;;17.13;3.05;;;;;;;14.54;79.83;99742.75;5029211;28;20038;-80
2023/03/30 09:56:44;;;;;;;4.18;2.40;;;;;;;14.03;87.05;99721.06;5026561;28;20100;-80
2023/03/30 09:59:37;;;;;;;22.45;5.07;;;;;;;13.84;90.17;99721.72;5033800;28;20056;-79
2023/03/30 10:02:19;;;;;;;6.20;2.47;;;;;;;14.10;89.56;99722.53;5026950;28;20104;-79
2023/03/30 10:04:52;;;;;;;10.73;2.97;;;;;;;14.50;87.73;99730.66;5040404;28;20039;-81
2023/03/30 10:07:36;;;;;;;79.17;10.50;;;;;;;14.53;87.58;99725.25;5029883;28;20033;-78
2023/03/30 10:10:25;;;;;;;90.68;10.90;;;;;;;14.50;87.43;99722.75;5039547;28;20392;-79
2023/03/30 10:13:06;;;;;;;9.30;2.17;;;;;;;14.55;85.59;99716.34;5012622;28;20080;-80
2023/03/30 10:15:38;;;;;;;12.77;2.67;;;;;;;14.97;84.00;99712.03;5032709;28;20041;-78
2023/03/30 10:18:24;;;;;;;4.43;2.17;;;;;;;15.33;81.50;99710.50;5005015;28;20080;-79
2023/03/30 10:21:21;;;;;;;6.65;2.03;;;;;;;15.61;79.84;99718.06;5119732;23;20102;-81
2023/03/30 10:24:03;;;;;;;7.32;2.78;;;;;;;15.54;80.22;99712.22;5029606;28;20397;-79
2023/03/30 10:26:30;;;;;;;5.07;1.92;;;;;;;15.66;79.68;99717.88;5032908;28;20072;-84
2023/03/30 10:29:09;;;;;;;6.00;2.15;;;;;;;17.50;70.90;99701.06;5023159;28;20056;-79
2023/03/30 10:31:39;;;;;;;4.13;1.67;;;;;;;19.05;64.33;99703.09;5030118;28;20059;-78
2023/03/30 10:34:15;;;;;;;3.33;1.65;;;;;;;19.86;59.97;99712.38;5040027;28;20042;-79
2023/03/30 10:36:42;;;;;;;3.50;1.52;;;;;;;19.17;60.05;99718.28;5022123;28;20072;-79
2023/03/30 10:39:20;;;;;;;6.18;1.75;;;;;;;17.74;64.81;99750.97;5023116;28;20140;-80
2023/03/30 10:41:50;;;;;;;4.45;1.35;;;;;;;16.02;76.13;99781.34;5038651;28;20147;-79
2023/03/30 10:48:24;;;;;;;3.10;1.23;;;;;;;12.27;100.00;99784.75;5017734;28;20125;-79
2023/03/30 10:51:25;;;;;;;2.25;1.27;;;;;;;11.30;100.00;99785.69;5044134;28;20048;-79
2023/03/30 10:54:26;;;;;;;9.05;1.08;;;;;;;10.86;100.00;99784.13;5037082;28;20112;-79
2023/03/30 10:57:16;;;;;;;2.53;1.00;;;;;;;10.82;100.00;99765.91;5018899;28;20056;-77
2023/03/30 11:00:14;;;;;;;7.50;1.02;;;;;;;10.88;100.00;99760.53;5009484;28;20042;-80
2023/03/30 11:03:03;;;;;;;4.38;0.82;;;;;;;10.88;100.00;99768.38;5045219;28;20045;-80
2023/03/30 11:05:54;;;;;;;5.20;0.95;;;;;;;10.89;100.00;99772.72;5064329;28;20526;-80
2023/03/30 11:08:37;;;;;;;4.28;0.50;;;;;;;11.04;100.00;99768.84;5063986;28;20056;-79
2023/03/30 11:11:35;;;;;;;4.88;0.98;;;;;;;11.38;100.00;99770.59;4992202;28;20050;-79
2023/03/30 11:14:25;;;;;;;5.75;0.77;;;;;;;11.90;100.00;99776.16;5005752;28;20204;-81
2023/03/30 11:20:28;;;;;;;2.72;0.93;;;;;;;14.80;91.09;99757.53;5044724;28;20047;-78
2023/03/30 11:23:17;;;;;;;2.45;1.20;;;;;;;16.47;80.44;99750.22;5030660;28;20073;-81
2023/03/30 11:26:11;;;;;;;22.63;2.70;;;;;;;17.47;74.25;99746.19;5025306;28;20053;-79
2023/03/30 11:29:39;;;;;;;5.75;1.20;;;;;;;18.55;69.32;99729.78;5035204;28;20049;-78
2023/03/30 11:32:33;;;;;;;3.30;1.38;;;;;;;19.75;63.62;99715.66;5014373;28;20038;-84
2023/03/30 11:38:54;;;;;;;2.08;0.80;;;;;;;20.35;59.10;99703.94;5039325;28;20121;-78
2023/03/30 11:42:18;;;;;;;4.00;1.13;;;;;;;21.02;56.93;99703.09;5021492;28;20065;-80
2023/03/30 11:44:45;;;;;;;4.10;1.50;;;;;;;21.60;54.53;99698.25;5033558;28;20046;-78
2023/03/30 11:47:53;;;;;;;2.47;1.23;;;;;;;22.19;51.75;99701.19;5011981;28;20050;-77
2023/03/30 11:50:33;;;;;;;;;;;;;;;22.23;46.71;99703.53;5034523;28;20048;-86
2023/03/30 11:53:32;;;;;;;4.38;1.23;;;;;;;21.93;46.84;99706.63;4996283;28;19921;-77
2023/03/30 11:56:17;;;;;;;15.32;2.45;;;;;;;;;;5020644;28;20057;-80
2023/03/30 12:00:00;;;;;;;16.95;2.05;;;;;;;22.36;46.43;99702.66;4963866;28;20494;-79
2023/03/30 12:03:02;;;;;;;26.30;3.28;;;;;;;21.80;45.36;99706.63;4952797;28;20621;-80
2023/03/30 12:06:07;;;;;;;10.93;1.52;;;;;;;19.73;49.92;99734.34;5003028;28;20061;-80
2023/03/30 12:09:17;;;;;;;6.00;1.38;;;;;;;20.25;49.73;99729.41;5032294;28;20045;-77
2023/03/30 12:11:55;;;;;;;8.93;1.65;;;;;;;20.46;48.22;99727.16;5011647;28;20048;-81
2023/03/30 12:14:41;;;;;;;5.13;1.10;;;;;;;19.85;50.01;99735.41;5000698;28;20038;-78
2023/03/30 12:17:38;;;;;;;5.97;1.40;;;;;;;19.07;51.37;99727.72;5000809;28;20056;-84
2023/03/30 12:20:28;;;;;;;2.72;1.00;;;;;;;17.83;54.01;99729.28;5014809;28;20137;-79
2023/03/30 12:23:21;;;;;;;8.50;2.05;;;;;;;17.29;56.28;99740.09;4999088;28;20046;-84